createdAt,value
2018-09-30T00:04:04.023Z,14.10
2018-09-30T00:09:08.332Z,11.57
2018-09-30T00:14:11.882Z,12.90
2018-09-30T00:19:15.557Z,9.70
2018-09-30T00:24:24.423Z,12.63
2018-09-30T00:29:29.349Z,12.57
2018-09-30T00:34:34.041Z,11.67
2018-09-30T00:39:37.655Z,9.73
2018-09-30T00:44:41.323Z,11.90
2018-09-30T00:49:44.876Z,12.00
2018-09-30T00:54:48.648Z,14.17
2018-09-30T00:59:52.281Z,11.37
2018-09-30T01:04:56.006Z,9.10
2018-09-30T01:09:59.702Z,15.43
2018-09-30T01:15:03.270Z,9.77
2018-09-30T01:20:06.882Z,10.57
2018-09-30T01:25:10.446Z,11.10
2018-09-30T01:30:14.057Z,9.27
2018-09-30T01:35:17.838Z,9.53
2018-09-30T01:40:21.478Z,10.03
2018-09-30T01:45:25.139Z,14.57
2018-09-30T01:50:28.734Z,9.80
2018-09-30T01:55:32.434Z,9.53
2018-09-30T02:00:40.476Z,11.57
2018-09-30T02:05:44.116Z,9.77
2018-09-30T02:10:47.737Z,11.20
2018-09-30T02:15:51.601Z,10.43
2018-09-30T02:20:55.174Z,13.00
2018-09-30T02:25:58.898Z,10.40
2018-09-30T02:31:02.529Z,13.47
2018-09-30T02:36:06.246Z,6.03
2018-09-30T02:41:12.473Z,9.07
2018-09-30T02:46:16.077Z,6.87
2018-09-30T02:51:19.659Z,8.07
2018-09-30T02:56:23.205Z,11.47
2018-09-30T03:01:26.739Z,10.80
2018-09-30T03:06:35.487Z,6.10
2018-09-30T03:11:39.015Z,8.63
2018-09-30T03:16:43.263Z,13.63
2018-09-30T03:21:46.888Z,9.87
2018-09-30T03:26:50.472Z,10.03
2018-09-30T03:31:54.318Z,13.43
2018-09-30T03:36:57.847Z,11.97
2018-09-30T03:42:01.438Z,9.30
2018-09-30T03:47:04.977Z,14.23
2018-09-30T03:52:08.643Z,15.47
2018-09-30T03:57:12.392Z,10.20
2018-09-30T04:02:16.227Z,13.17
2018-09-30T04:07:19.922Z,9.30
2018-09-30T04:12:23.453Z,10.40
2018-09-30T04:17:27.131Z,11.43
2018-09-30T04:22:30.683Z,11.83
2018-09-30T04:27:34.294Z,10.93
2018-09-30T04:32:37.909Z,14.60
2018-09-30T04:37:41.514Z,10.83
2018-09-30T04:42:45.198Z,10.73
2018-09-30T04:47:50.946Z,11.37
2018-09-30T04:52:54.630Z,13.27
2018-09-30T04:57:58.235Z,17.27
2018-09-30T05:03:01.869Z,16.57
2018-09-30T05:08:05.506Z,10.23
2018-09-30T05:13:09.061Z,12.00
2018-09-30T05:18:12.610Z,13.30
2018-09-30T05:23:16.200Z,16.50
2018-09-30T05:28:19.797Z,11.70
2018-09-30T05:33:23.396Z,9.33
2018-09-30T05:38:27.029Z,12.23
2018-09-30T05:43:30.521Z,9.87
2018-09-30T05:48:34.221Z,10.20
2018-09-30T05:53:37.850Z,9.33
2018-09-30T05:58:41.381Z,11.87
2018-09-30T06:03:44.956Z,11.63
2018-09-30T06:08:48.818Z,12.10
2018-09-30T06:13:52.563Z,10.80
2018-09-30T06:19:01.694Z,10.33
2018-09-30T06:24:05.337Z,8.13
2018-09-30T06:29:09.313Z,8.10
2018-09-30T06:34:12.948Z,8.53
2018-09-30T06:39:16.746Z,11.53
2018-09-30T06:44:20.608Z,11.13
2018-09-30T06:49:24.345Z,8.17
2018-09-30T06:54:27.943Z,5.50
2018-09-30T06:59:31.573Z,12.37
2018-09-30T07:04:35.159Z,7.87
2018-09-30T07:09:38.787Z,15.27
2018-09-30T07:14:42.470Z,8.83
2018-09-30T07:19:45.998Z,6.90
2018-09-30T07:24:49.653Z,6.47
2018-09-30T07:29:53.207Z,8.63
2018-09-30T07:34:56.986Z,13.23
2018-09-30T07:40:00.617Z,7.37
2018-09-30T07:45:04.233Z,5.53
2018-09-30T07:50:08.002Z,6.90
2018-09-30T07:55:11.715Z,10.03
2018-09-30T08:00:22.984Z,8.13
2018-09-30T08:05:26.767Z,7.57
2018-09-30T08:10:30.468Z,6.63
2018-09-30T08:15:34.219Z,6.73
2018-09-30T08:20:37.880Z,5.53
2018-09-30T08:25:41.486Z,4.87
2018-09-30T08:30:47.515Z,7.47
2018-09-30T08:35:56.632Z,5.70
2018-09-30T08:41:03.715Z,9.37
2018-09-30T08:46:07.701Z,7.07
2018-09-30T08:51:11.309Z,7.83
2018-09-30T08:56:15.741Z,8.87
2018-09-30T09:01:19.283Z,4.73
2018-09-30T09:06:22.918Z,12.07
2018-09-30T09:11:26.525Z,5.70
2018-09-30T09:16:30.310Z,4.43
2018-09-30T09:21:33.920Z,5.43
2018-09-30T09:26:37.630Z,7.47
2018-09-30T09:31:41.314Z,7.40
2018-09-30T09:36:44.939Z,8.33
2018-09-30T09:41:48.595Z,10.43
2018-09-30T09:46:52.299Z,7.63
2018-09-30T09:51:55.864Z,4.37
2018-09-30T09:57:00.482Z,13.43
2018-09-30T10:02:04.226Z,10.07
2018-09-30T10:07:07.830Z,8.53
2018-09-30T10:12:11.615Z,8.03
2018-09-30T10:17:15.293Z,6.67
2018-09-30T10:22:19.041Z,8.90
2018-09-30T10:27:22.563Z,8.87
2018-09-30T10:32:26.608Z,5.73
2018-09-30T10:37:30.249Z,7.73
2018-09-30T10:42:33.908Z,8.93
2018-09-30T10:47:37.620Z,5.40
2018-09-30T10:52:41.160Z,7.70
2018-09-30T10:57:44.790Z,14.23
2018-09-30T11:02:48.434Z,11.17
2018-09-30T11:07:52.058Z,6.17
2018-09-30T11:12:55.649Z,5.07
2018-09-30T11:17:59.272Z,6.03
2018-09-30T11:23:02.863Z,7.13
2018-09-30T11:28:06.583Z,6.57
2018-09-30T11:33:10.414Z,5.77
2018-09-30T11:38:14.735Z,10.87
2018-09-30T11:43:18.310Z,6.43
2018-09-30T11:48:22.121Z,7.90
2018-09-30T11:53:25.720Z,6.13
2018-09-30T11:58:29.299Z,14.20
2018-09-30T12:03:33.352Z,6.17
2018-09-30T12:08:36.891Z,8.87
2018-09-30T12:13:40.426Z,6.30
2018-09-30T12:18:44.169Z,7.93
2018-09-30T12:24:03.712Z,10.07
2018-09-30T12:29:19.855Z,6.87
2018-09-30T12:39:45.396Z,5.97
2018-09-30T12:44:51.107Z,8.10
2018-09-30T12:50:02.415Z,5.53
2018-09-30T12:55:10.034Z,6.07
2018-09-30T13:00:17.293Z,9.60
2018-09-30T13:05:30.530Z,9.90
2018-09-30T13:10:34.393Z,6.90
2018-09-30T13:15:38.058Z,15.27
2018-09-30T13:20:41.805Z,8.07
2018-09-30T13:31:05.187Z,5.80
2018-09-30T13:41:38.583Z,7.77
2018-09-30T13:52:29.714Z,8.23
2018-09-30T14:02:45.511Z,7.37
2018-09-30T14:07:49.379Z,11.10
2018-09-30T14:18:21.756Z,6.90
2018-09-30T14:39:49.731Z,9.10
2018-09-30T14:45:00.540Z,6.27
2018-09-30T14:50:15.631Z,5.33
2018-09-30T15:11:51.861Z,5.17
2018-09-30T15:16:55.471Z,4.67
2018-09-30T15:21:59.171Z,9.03
2018-09-30T15:27:02.753Z,8.77
2018-09-30T15:32:06.628Z,6.90
2018-09-30T15:37:10.744Z,4.63
2018-09-30T15:42:15.874Z,7.07
2018-09-30T15:47:19.668Z,7.10
2018-09-30T15:52:24.268Z,6.53
2018-09-30T15:57:27.824Z,9.20
2018-09-30T16:02:31.350Z,5.07
2018-09-30T16:07:34.943Z,7.10
2018-09-30T16:12:38.472Z,7.23
2018-09-30T16:17:42.089Z,8.03
2018-09-30T16:22:45.801Z,10.53
2018-09-30T16:27:49.483Z,6.60
2018-09-30T16:32:53.088Z,11.63
2018-09-30T16:37:56.675Z,9.33
2018-09-30T16:43:00.224Z,6.80
2018-09-30T16:48:03.858Z,12.30
2018-09-30T16:53:07.445Z,9.10
2018-09-30T16:58:11.256Z,6.37
2018-09-30T17:03:14.875Z,6.33
2018-09-30T17:08:18.626Z,8.80
2018-09-30T17:13:22.711Z,7.15
2018-09-30T17:18:26.357Z,7.53
2018-09-30T17:23:31.512Z,6.47
2018-09-30T17:28:35.905Z,9.90
2018-09-30T17:33:39.537Z,8.63
2018-09-30T17:38:44.152Z,9.20
2018-09-30T17:43:47.824Z,11.90
2018-09-30T17:48:51.370Z,8.03
2018-09-30T17:53:54.910Z,7.73
2018-09-30T17:58:58.571Z,7.93
2018-09-30T18:04:02.233Z,7.37
2018-09-30T18:09:09.317Z,9.63
2018-09-30T18:14:12.970Z,14.03
2018-09-30T18:19:16.579Z,11.20
2018-09-30T18:24:20.273Z,6.57
2018-09-30T18:29:23.990Z,13.50
2018-09-30T18:34:27.716Z,7.37
2018-09-30T18:39:31.396Z,9.90
2018-09-30T18:44:35.096Z,8.50
2018-09-30T18:49:38.857Z,6.43
2018-09-30T18:54:42.507Z,8.63
2018-09-30T18:59:46.113Z,9.83
2018-09-30T19:04:49.707Z,9.30
2018-09-30T19:09:53.318Z,8.80
2018-09-30T19:14:56.925Z,7.13
2018-09-30T19:20:00.839Z,11.10
2018-09-30T19:25:04.728Z,12.07
2018-09-30T19:30:11.372Z,10.30
2018-09-30T19:35:15.070Z,12.93
2018-09-30T19:40:18.710Z,7.50
2018-09-30T19:45:22.666Z,7.83
2018-09-30T19:50:26.308Z,10.57
2018-09-30T19:55:29.920Z,8.80
2018-09-30T20:00:37.452Z,9.30
2018-09-30T20:05:41.203Z,8.23
2018-09-30T20:10:44.786Z,7.53
2018-09-30T20:15:48.416Z,9.97
2018-09-30T20:20:52.169Z,16.17
2018-09-30T20:25:55.757Z,10.93
2018-09-30T20:31:00.043Z,18.53
2018-09-30T20:36:04.027Z,23.93
2018-09-30T20:41:08.507Z,26.60
2018-09-30T20:46:12.097Z,35.43
2018-09-30T20:51:16.250Z,41.73
2018-09-30T20:56:20.841Z,45.40
2018-09-30T21:01:24.533Z,41.23
2018-09-30T21:06:31.574Z,32.83
2018-09-30T21:11:35.189Z,31.20
2018-09-30T21:16:39.163Z,23.67
2018-09-30T21:21:42.763Z,18.57
2018-09-30T21:26:46.309Z,27.30
2018-09-30T21:31:49.838Z,19.37
2018-09-30T21:36:53.668Z,19.83
2018-09-30T21:41:57.421Z,23.83
2018-09-30T21:47:01.009Z,14.77
2018-09-30T21:52:04.582Z,12.40
2018-09-30T21:57:08.218Z,12.73
2018-09-30T22:02:11.886Z,11.73
2018-09-30T22:07:15.518Z,18.77
2018-09-30T22:12:19.127Z,14.37
2018-09-30T22:17:22.743Z,14.97
2018-09-30T22:22:26.539Z,14.93
2018-09-30T22:27:30.144Z,15.17
2018-09-30T22:32:33.740Z,13.13
2018-09-30T22:37:37.353Z,14.43
2018-09-30T22:42:41.044Z,14.53
2018-09-30T22:47:44.766Z,10.63
2018-09-30T22:52:48.409Z,13.43
2018-09-30T22:57:51.954Z,15.00
2018-09-30T23:02:55.584Z,13.53
2018-09-30T23:07:59.167Z,15.13
2018-09-30T23:13:02.690Z,19.77
2018-09-30T23:18:06.462Z,16.43
2018-09-30T23:23:10.004Z,14.50
2018-09-30T23:28:13.666Z,16.53
2018-09-30T23:33:17.360Z,14.10
2018-09-30T23:38:20.944Z,13.27
2018-09-30T23:43:24.523Z,17.63
2018-09-30T23:48:28.142Z,15.70
2018-09-30T23:53:31.784Z,12.87
2018-09-30T23:58:35.476Z,13.60
